Stonyford, California
Current Conditions -  °F | °C
As of 3:56 PM on Saturday 22 Nov 2014 (Local Time) from KUKI Reporting Station
Clear Clear  
Wind Chill: 15°   Ceiling: Unl
Heat Index: 15°   Visibility: 10mi
Dew Point:   Wind: 12mph
Humidity: 58%   Direction: 310°NW
Pressure: 30.16"   Gusts: 18mph
Location:  39.37°N, 122.55°W
Report Text: KUKI 222356Z AUTO 31010G16KT 10SM CLR 15/07 A3016 RMK AO2 SLP209 60000 T01500067 10178 20150 51018
Loading
Personal Weather Stations






























Interactive Weather Map New forecast layout! Learn more

10-Day Weather Forecast

Advertisements
Track Severe Weather on mobile